createdAt,value
2018-05-27T00:05:53.685Z,6.07
2018-05-27T00:11:48.659Z,6.48
2018-05-27T00:17:43.913Z,5.79
2018-05-27T00:23:38.686Z,6.1
2018-05-27T00:29:33.735Z,5.81
2018-05-27T00:35:28.741Z,6.68
2018-05-27T00:41:23.726Z,6.25
2018-05-27T00:47:18.686Z,6.35
2018-05-27T00:53:13.697Z,5.82
2018-05-27T00:59:08.713Z,6.28
2018-05-27T01:05:03.782Z,6.74
2018-05-27T01:10:58.750Z,6.83
2018-05-27T01:16:53.718Z,6.18
2018-05-27T01:22:48.711Z,6.84
2018-05-27T01:28:43.697Z,7.48
2018-05-27T01:34:38.716Z,7.06
2018-05-27T01:40:33.727Z,7.61
2018-05-27T01:46:28.792Z,6.9
2018-05-27T01:52:23.728Z,8.14
2018-05-27T01:58:18.751Z,7.59
2018-05-27T02:04:13.717Z,7.18
2018-05-27T02:10:09.067Z,7.36
2018-05-27T02:16:03.788Z,7.5
2018-05-27T02:21:58.763Z,6.9
2018-05-27T02:27:53.772Z,7.78
2018-05-27T02:33:48.748Z,7.26
2018-05-27T02:39:43.724Z,7.15
2018-05-27T02:45:38.744Z,7.92
2018-05-27T02:51:33.763Z,7.7
2018-05-27T02:57:28.744Z,7.78
2018-05-27T03:03:23.741Z,7.56
2018-05-27T03:09:18.740Z,6.6
2018-05-27T03:15:13.780Z,6.63
2018-05-27T03:21:08.762Z,6.58
2018-05-27T03:27:03.741Z,6.35
2018-05-27T03:32:58.769Z,6.43
2018-05-27T03:38:53.751Z,7.11
2018-05-27T03:44:48.771Z,7.54
2018-05-27T03:50:43.752Z,8.57
2018-05-27T03:56:38.753Z,8.25
2018-05-27T04:02:33.838Z,8.32
2018-05-27T04:08:28.743Z,8.58
2018-05-27T04:14:23.779Z,8.58
2018-05-27T04:20:18.793Z,8.19
2018-05-27T04:26:13.766Z,8.61
2018-05-27T04:32:08.853Z,7.65
2018-05-27T04:38:03.790Z,7.18
2018-05-27T04:43:58.782Z,6.86
2018-05-27T04:49:53.784Z,6.35
2018-05-27T04:55:48.813Z,5.97
2018-05-27T05:01:43.809Z,6.49
2018-05-27T05:07:38.786Z,6.16
2018-05-27T05:13:33.802Z,6.43
2018-05-27T05:19:28.789Z,6.37
2018-05-27T05:25:24.353Z,7.63
2018-05-27T05:31:18.823Z,8.63
2018-05-27T05:37:13.803Z,8.42
2018-05-27T05:43:08.792Z,8.98
2018-05-27T05:49:03.818Z,8.13
2018-05-27T05:54:58.793Z,8.28
2018-05-27T06:00:53.841Z,8.52
2018-05-27T06:06:48.838Z,7.8
2018-05-27T06:12:43.784Z,8.2
2018-05-27T06:18:38.822Z,7.61
2018-05-27T06:24:33.838Z,7.39
2018-05-27T06:30:28.843Z,7.95
2018-05-27T06:36:23.860Z,7.81
2018-05-27T06:42:18.834Z,7.77
2018-05-27T06:48:13.798Z,9.07
2018-05-27T06:54:08.863Z,9.37
2018-05-27T07:00:03.863Z,9.32
2018-05-27T07:05:58.865Z,8.97
2018-05-27T07:11:53.857Z,9.06
2018-05-27T07:17:48.863Z,8.43
2018-05-27T07:23:43.857Z,8.36
2018-05-27T07:29:38.859Z,7.91
2018-05-27T07:35:33.925Z,8.32
2018-05-27T07:41:28.866Z,8.42
2018-05-27T07:47:23.826Z,7.18
2018-05-27T07:53:18.954Z,7.31
2018-05-27T07:59:13.838Z,7.42
2018-05-27T08:05:08.861Z,7.48
2018-05-27T08:11:03.875Z,7.3
2018-05-27T08:16:58.848Z,7.29
2018-05-27T08:22:53.933Z,6.83
2018-05-27T08:28:48.857Z,7.72
2018-05-27T08:34:43.852Z,6.76
2018-05-27T08:40:38.872Z,6.66
2018-05-27T08:46:33.881Z,6.72
2018-05-27T08:52:28.867Z,6.97
2018-05-27T08:58:23.884Z,6.4
2018-05-27T09:04:18.939Z,6.32
2018-05-27T09:10:13.890Z,5.85
2018-05-27T09:16:08.890Z,5.99
2018-05-27T09:22:03.881Z,6.34
2018-05-27T09:27:58.891Z,5.76
2018-05-27T09:33:53.902Z,5.55
2018-05-27T09:39:48.871Z,5.82
2018-05-27T09:45:43.890Z,5.55
2018-05-27T09:51:38.876Z,5.83
2018-05-27T09:57:33.873Z,6.26
2018-05-27T10:03:28.873Z,5.98
2018-05-27T10:09:23.879Z,5.65
2018-05-27T10:15:18.925Z,5.48
2018-05-27T10:21:13.933Z,5.27
2018-05-27T10:27:08.922Z,5.74
2018-05-27T10:33:03.908Z,5.54
2018-05-27T10:38:58.945Z,4.51
2018-05-27T10:44:53.908Z,4.66
2018-05-27T10:50:48.914Z,4.47
2018-05-27T10:56:43.901Z,4.19
2018-05-27T11:02:38.923Z,3.97
2018-05-27T11:08:33.933Z,2.98
2018-05-27T11:14:28.957Z,3.23
2018-05-27T11:20:23.903Z,3.17
2018-05-27T11:26:18.931Z,2.77
2018-05-27T11:32:13.973Z,2.48
2018-05-27T11:38:08.916Z,2.57
2018-05-27T11:44:03.956Z,2.16
2018-05-27T11:49:58.940Z,2.66
2018-05-27T11:55:53.993Z,2.84
2018-05-27T12:01:49.024Z,1.77
2018-05-27T12:07:43.956Z,1.65
2018-05-27T12:13:38.971Z,1.59
2018-05-27T12:19:34.090Z,1.67
2018-05-27T12:25:28.969Z,1.82
2018-05-27T12:37:18.968Z,1.61
2018-05-27T12:37:19.024Z,1.66
2018-05-27T12:43:14.004Z,1.94
2018-05-27T12:49:08.969Z,1.67
2018-05-27T13:00:58.974Z,1.84
2018-05-27T13:00:59.029Z,2.31
2018-05-27T13:06:53.972Z,2.11
2018-05-27T13:12:48.960Z,1.68
2018-05-27T13:24:39.051Z,2
2018-05-27T13:24:39.071Z,1.78
2018-05-27T13:42:24.002Z,1.72
2018-05-27T13:42:24.040Z,1.77
2018-05-27T13:42:24.076Z,1.77
2018-05-27T14:00:09.053Z,1.9
2018-05-27T14:00:09.080Z,1.78
2018-05-27T14:41:34.068Z,1.83
2018-05-27T14:41:34.097Z,2.3
2018-05-27T14:41:34.103Z,2.3
2018-05-27T14:41:34.138Z,2.3
2018-05-27T14:41:34.163Z,2.3
2018-05-27T14:41:34.174Z,2.3
2018-05-27T14:41:34.206Z,2.3
2018-05-27T14:47:29.010Z,2.14
2018-05-27T14:53:24.027Z,2.4
2018-05-27T14:59:19.014Z,2.63
2018-05-27T15:05:14.093Z,2.63
2018-05-27T15:11:09.029Z,3.17
2018-05-27T15:17:03.999Z,2.72
2018-05-27T15:22:59.048Z,3.29
2018-05-27T15:28:54.035Z,3.18
2018-05-27T15:34:49.090Z,3.99
2018-05-27T15:40:44.050Z,4.34
2018-05-27T15:46:39.021Z,4.9
2018-05-27T15:52:34.025Z,4.89
2018-05-27T15:58:29.161Z,5.38
2018-05-27T16:04:24.032Z,6.03
2018-05-27T16:10:19.048Z,6.05
2018-05-27T16:16:14.056Z,6.1
2018-05-27T16:22:09.098Z,5.69
2018-05-27T16:33:59.059Z,6.24
2018-05-27T16:33:59.085Z,5.8
2018-05-27T17:15:24.150Z,5.87
2018-05-27T17:15:24.189Z,5.92
2018-05-27T17:15:24.226Z,5.92
2018-05-27T17:15:24.249Z,5.92
2018-05-27T17:15:24.266Z,5.92
2018-05-27T17:15:24.287Z,5.92
2018-05-27T17:15:24.297Z,5.92
2018-05-27T17:21:19.060Z,5.53
2018-05-27T17:27:14.097Z,5.65
2018-05-27T17:33:09.091Z,6.55
2018-05-27T17:39:04.065Z,6.13
2018-05-27T17:44:59.079Z,5.87
2018-05-27T17:50:54.067Z,5.95
2018-05-27T17:56:49.108Z,5.55
2018-05-27T18:02:44.064Z,5.3
2018-05-27T18:08:39.095Z,6.47
2018-05-27T18:14:34.068Z,5.6
2018-05-27T18:20:29.178Z,6.1
2018-05-27T18:26:24.067Z,6.27
2018-05-27T18:32:19.102Z,5.86
2018-05-27T18:38:14.108Z,5.48
2018-05-27T18:44:09.105Z,6.09
2018-05-27T18:50:04.098Z,6.67
2018-05-27T18:55:59.129Z,5.86
2018-05-27T19:01:54.095Z,6.75
2018-05-27T19:07:49.133Z,6.39
2018-05-27T19:13:44.112Z,6.17
2018-05-27T19:19:39.110Z,6.3
2018-05-27T19:25:34.113Z,6.25
2018-05-27T19:31:29.133Z,6.6
2018-05-27T19:37:24.108Z,6.24
2018-05-27T19:43:19.182Z,6.33
2018-05-27T19:49:14.228Z,6.35
2018-05-27T19:55:09.140Z,6.27
2018-05-27T20:01:04.132Z,6.43
2018-05-27T20:06:59.132Z,6.71
2018-05-27T20:12:54.197Z,6.49
2018-05-27T20:18:49.127Z,6.36
2018-05-27T20:24:44.109Z,6.13
2018-05-27T20:30:39.146Z,6.82
2018-05-27T20:36:34.191Z,6.61
2018-05-27T20:42:29.130Z,6.7
2018-05-27T20:48:24.147Z,7.21
2018-05-27T20:54:19.193Z,7.04
2018-05-27T21:00:14.148Z,7.33
2018-05-27T21:06:09.125Z,8.53
2018-05-27T21:12:04.182Z,9.36
2018-05-27T21:17:59.185Z,9.27
2018-05-27T21:23:54.155Z,8.93
2018-05-27T21:29:49.163Z,8.64
2018-05-27T21:35:44.134Z,9.19
2018-05-27T21:41:39.172Z,8.87
2018-05-27T21:47:34.177Z,8.49
2018-05-27T21:53:29.189Z,9.06
2018-05-27T21:59:24.231Z,8.79
2018-05-27T22:05:19.178Z,9.21
2018-05-27T22:11:14.168Z,9.48
2018-05-27T22:17:09.211Z,9.1
2018-05-27T22:23:04.177Z,9.71
2018-05-27T22:28:59.171Z,9.56
2018-05-27T22:34:54.177Z,9.8
2018-05-27T22:40:49.179Z,9.13
2018-05-27T22:46:44.171Z,9.4
2018-05-27T22:52:39.166Z,8.95
2018-05-27T22:58:34.221Z,7.57
2018-05-27T23:04:29.189Z,7.76
2018-05-27T23:10:24.185Z,8.23
2018-05-27T23:16:19.227Z,8.18
2018-05-27T23:22:14.219Z,8.57
2018-05-27T23:28:09.187Z,9.45
2018-05-27T23:34:04.202Z,9.1
2018-05-27T23:39:59.202Z,9.94
2018-05-27T23:45:54.209Z,9.63
2018-05-27T23:51:49.218Z,9.33
2018-05-27T23:57:44.198Z,9.47
